Time;durP1;ratioP1;P1;durP2;ratioP2;P2;SDS_P1;SDS_P2;PMS_P1;PMS_P2;Temp;Humidity;BMP_temperature;BMP_pressure;BME280_temperature;BME280_humidity;BME280_pressure;Samples;Min_cycle;Max_cycle;Signal;HPM_P1;HPM_P2
2023/10/11 00:00:44;;;;;;;12.33;9.30;;;;;;;10.98;100.00;97360.84;5061951;28;20194;-61
2023/10/11 00:03:17;;;;;;;11.07;9.67;;;;;;;10.92;100.00;97359.75;5054087;28;20208;-58
2023/10/11 00:05:46;;;;;;;11.73;10.50;;;;;;;10.88;100.00;97361.13;5059761;28;20697;-58
2023/10/11 00:08:16;;;;;;;10.93;9.83;;;;;;;10.85;100.00;97359.66;5004376;28;20256;-61
2023/10/11 00:10:49;;;;;;;12.37;11.07;;;;;;;10.86;100.00;97360.50;5056251;28;20226;-60
2023/10/11 00:13:17;;;;;;;11.20;9.40;;;;;;;10.88;100.00;97357.66;5009080;28;20462;-60
2023/10/11 00:15:48;;;;;;;10.90;9.83;;;;;;;10.84;100.00;97354.56;5060198;28;20208;-60
2023/10/11 00:18:19;;;;;;;11.70;10.50;;;;;;;10.85;100.00;97358.84;4945851;28;21219;-59
2023/10/11 00:20:50;;;;;;;10.13;9.23;;;;;;;10.82;100.00;97356.56;5056386;28;20234;-59
2023/10/11 00:23:20;;;;;;;14.23;9.70;;;;;;;10.79;100.00;97354.25;5052905;28;20204;-61
2023/10/11 00:25:50;;;;;;;11.23;10.03;;;;;;;10.77;100.00;97349.16;5057000;28;20284;-59
2023/10/11 00:28:20;;;;;;;10.37;9.47;;;;;;;10.76;100.00;97354.63;5057098;28;20250;-60
2023/10/11 00:30:47;;;;;;;11.50;9.27;;;;;;;10.73;100.00;97337.25;5060869;28;20284;-60
2023/10/11 00:33:15;;;;;;;10.13;9.13;;;;;;;10.65;100.00;97338.16;5055779;28;20233;-60
2023/10/11 00:36:04;;;;;;;11.00;9.53;;;;;;;10.62;100.00;97338.53;4998448;28;20215;-60
2023/10/11 00:38:42;;;;;;;11.10;9.97;;;;;;;10.53;100.00;97329.00;5054770;28;20269;-61
2023/10/11 00:41:17;;;;;;;10.43;8.60;;;;;;;10.55;100.00;97337.59;5002678;28;20759;-58
2023/10/11 00:43:49;;;;;;;11.20;8.70;;;;;;;10.54;100.00;97341.25;5057924;28;20221;-60
2023/10/11 00:46:19;;;;;;;11.47;10.00;;;;;;;10.51;100.00;97336.31;5008809;28;20245;-59
2023/10/11 00:48:53;;;;;;;12.33;11.17;;;;;;;10.55;100.00;97333.09;5054029;28;20214;-59
2023/10/11 00:51:24;;;;;;;11.07;10.00;;;;;;;10.59;100.00;97332.75;4947521;28;21117;-59
2023/10/11 00:53:52;;;;;;;12.60;11.47;;;;;;;10.66;100.00;97331.03;5051680;28;20643;-59
2023/10/11 00:56:21;;;;;;;13.00;10.93;;;;;;;10.68;100.00;97335.16;5053864;28;20206;-60
2023/10/11 00:58:51;;;;;;;12.93;11.63;;;;;;;10.68;100.00;97337.78;5060394;28;20199;-59
2023/10/11 01:01:21;;;;;;;16.37;12.43;;;;;;;10.68;100.00;97340.44;5055323;28;20218;-59
2023/10/11 01:03:49;;;;;;;12.67;11.13;;;;;;;10.70;100.00;97337.63;5054627;28;20210;-61
2023/10/11 01:06:17;;;;;;;12.90;11.50;;;;;;;10.67;100.00;97338.78;5057115;28;20203;-60
2023/10/11 01:08:48;;;;;;;15.17;11.70;;;;;;;10.68;100.00;97336.97;5054456;28;20199;-61
2023/10/11 01:11:16;;;;;;;12.93;11.60;;;;;;;10.68;100.00;97336.97;5053273;28;20293;-58
2023/10/11 01:13:50;;;;;;;16.10;12.07;;;;;;;10.64;100.00;97341.00;5054909;28;20284;-60
2023/10/11 01:16:20;;;;;;;12.80;10.33;;;;;;;10.63;100.00;97334.88;5000946;28;20245;-57
2023/10/11 01:18:48;;;;;;;14.43;11.30;;;;;;;10.65;100.00;97332.84;5056603;28;20195;-59
2023/10/11 01:21:19;;;;;;;16.37;12.27;;;;;;;10.73;100.00;97331.97;4950861;28;21084;-61
2023/10/11 01:23:46;;;;;;;13.37;12.07;;;;;;;10.78;100.00;97329.59;5058458;28;20227;-60
2023/10/11 01:26:15;;;;;;;13.30;11.87;;;;;;;10.78;100.00;97334.06;5058691;28;20301;-60
2023/10/11 01:28:44;;;;;;;14.97;12.20;;;;;;;10.82;100.00;97328.22;5057814;28;20206;-58
2023/10/11 01:31:16;;;;;;;13.83;12.10;;;;;;;10.85;100.00;97332.34;5054806;28;20203;-59
2023/10/11 01:33:48;;;;;;;14.33;12.43;;;;;;;10.91;100.00;97328.97;5057834;28;20219;-57
2023/10/11 01:36:21;;;;;;;12.57;11.40;;;;;;;10.89;100.00;97328.31;5055337;28;20797;-60
2023/10/11 01:38:50;;;;;;;15.90;14.30;;;;;;;10.92;100.00;97327.94;5056834;28;20285;-61
2023/10/11 01:41:20;;;;;;;15.77;13.30;;;;;;;10.94;100.00;97333.91;5056733;28;20276;-60
2023/10/11 01:43:49;;;;;;;17.03;14.43;;;;;;;10.94;100.00;97335.72;5061012;28;20203;-61
2023/10/11 01:46:24;;;;;;;15.87;14.23;;;;;;;10.93;100.00;97329.59;4999880;28;20210;-61
2023/10/11 01:48:53;;;;;;;15.73;12.90;;;;;;;10.92;100.00;97332.41;5057434;28;20289;-61
2023/10/11 01:51:26;;;;;;;15.27;13.07;;;;;;;10.92;100.00;97327.94;5055639;28;20230;-61
2023/10/11 01:53:54;;;;;;;17.47;12.43;;;;;;;10.77;100.00;97327.09;5053618;28;20230;-60
2023/10/11 01:56:23;;;;;;;15.57;13.33;;;;;;;10.57;100.00;97319.69;4946320;28;20585;-59
2023/10/11 01:58:51;;;;;;;13.07;11.70;;;;;;;10.55;100.00;97325.16;5060077;28;20444;-59
2023/10/11 02:01:22;;;;;;;13.90;12.53;;;;;;;10.48;100.00;97321.59;5056722;28;20288;-60
2023/10/11 02:03:53;;;;;;;13.67;12.27;;;;;;;10.47;100.00;97321.78;5056403;28;20286;-59
2023/10/11 02:06:24;;;;;;;13.73;12.43;;;;;;;10.52;100.00;97324.72;5055433;28;20570;-60
2023/10/11 02:08:52;;;;;;;16.87;13.83;;;;;;;10.54;100.00;97325.34;5050038;28;20206;-59
2023/10/11 02:11:24;;;;;;;15.23;13.63;;;;;;;10.59;100.00;97322.97;5054391;28;20550;-60
2023/10/11 02:13:52;;;;;;;14.53;13.23;;;;;;;10.60;100.00;97319.34;5056387;28;20229;-61
2023/10/11 02:16:20;;;;;;;14.67;13.27;;;;;;;10.62;100.00;97327.13;5054145;28;20207;-59
2023/10/11 02:18:51;;;;;;;15.47;13.83;;;;;;;10.63;100.00;97318.16;5056235;28;20203;-60
2023/10/11 02:21:19;;;;;;;15.57;14.00;;;;;;;10.61;100.00;97314.88;4999091;28;20290;-59
2023/10/11 02:23:49;;;;;;;14.63;13.13;;;;;;;10.59;100.00;97317.69;5057541;28;20256;-59
2023/10/11 02:26:17;;;;;;;13.87;12.57;;;;;;;10.52;100.00;97314.94;4947590;28;21114;-62
2023/10/11 02:28:45;;;;;;;14.13;12.70;;;;;;;10.51;100.00;97315.94;5057703;28;20221;-61
2023/10/11 02:31:20;;;;;;;14.90;13.47;;;;;;;10.53;100.00;97311.28;5051284;28;20695;-60
2023/10/11 02:33:51;;;;;;;18.33;14.27;;;;;;;10.54;100.00;97304.97;5056313;28;20228;-59
2023/10/11 02:36:20;;;;;;;15.87;13.73;;;;;;;10.63;100.00;97311.03;5048954;28;20199;-57
2023/10/11 02:38:50;;;;;;;14.53;13.03;;;;;;;10.64;100.00;97304.72;5054370;28;20294;-61
2023/10/11 02:41:21;;;;;;;16.20;14.50;;;;;;;10.67;100.00;97299.03;5053819;28;20303;-58
2023/10/11 02:43:49;;;;;;;16.90;14.63;;;;;;;10.66;100.00;97297.41;5055494;28;20226;-58
2023/10/11 02:46:17;;;;;;;15.77;14.17;;;;;;;10.74;100.00;97308.91;5053385;28;20207;-57
2023/10/11 02:48:46;;;;;;;15.63;13.73;;;;;;;10.72;100.00;97301.16;5054786;28;20203;-59
2023/10/11 02:51:16;;;;;;;16.30;14.60;;;;;;;10.73;100.00;97291.38;5052302;28;20322;-56
2023/10/11 02:53:44;;;;;;;16.23;14.53;;;;;;;10.73;100.00;97299.31;5053094;28;20552;-60
2023/10/11 02:56:15;;;;;;;15.97;13.67;;;;;;;10.69;100.00;97301.53;5002563;28;21287;-59
2023/10/11 02:58:43;;;;;;;18.80;14.33;;;;;;;10.74;100.00;97299.16;5055839;28;20303;-60
2023/10/11 03:01:16;;;;;;;15.63;14.13;;;;;;;10.68;100.00;97297.25;4943378;28;21533;-61
2023/10/11 03:03:48;;;;;;;16.10;14.40;;;;;;;10.66;100.00;97302.69;5056828;28;20256;-61
2023/10/11 03:06:18;;;;;;;18.83;15.00;;;;;;;10.68;100.00;97294.59;5052690;28;21029;-58
2023/10/11 03:08:46;;;;;;;16.33;14.73;;;;;;;10.73;100.00;97296.66;5055383;28;20659;-57
2023/10/11 03:11:16;;;;;;;16.77;14.97;;;;;;;10.75;100.00;97295.50;5056060;28;20298;-60
2023/10/11 03:13:44;;;;;;;17.07;15.47;;;;;;;10.76;100.00;97301.59;5060308;28;20222;-57
2023/10/11 03:16:13;;;;;;;20.40;16.37;;;;;;;10.79;100.00;97295.94;5055672;28;20844;-60
2023/10/11 03:18:42;;;;;;;20.37;16.17;;;;;;;10.74;100.00;97293.00;5061812;28;20313;-59
2023/10/11 03:21:16;;;;;;;17.80;15.87;;;;;;;10.76;100.00;97293.66;5057535;28;20210;-59
2023/10/11 03:23:47;;;;;;;17.33;15.63;;;;;;;10.78;100.00;97281.88;5027026;28;20206;-56
2023/10/11 03:26:18;;;;;;;20.07;16.33;;;;;;;10.84;100.00;97288.28;5037604;28;20290;-60
2023/10/11 03:28:56;;;;;;;18.10;15.60;;;;;;;10.80;100.00;97306.38;5024260;28;20668;-56
2023/10/11 03:31:27;;;;;;;17.83;16.00;;;;;;;10.76;100.00;97296.31;4983278;28;20283;-61
2023/10/11 03:33:56;;;;;;;17.87;16.17;;;;;;;10.69;100.00;97296.22;5057213;28;20890;-60
2023/10/11 03:36:30;;;;;;;18.23;16.47;;;;;;;10.76;100.00;97283.91;4944145;28;20226;-63
2023/10/11 03:38:58;;;;;;;20.77;16.03;;;;;;;10.83;100.00;97274.19;5058046;28;20202;-62
2023/10/11 03:41:28;;;;;;;19.43;16.57;;;;;;;10.77;100.00;97274.09;5056976;28;20218;-63
2023/10/11 03:44:01;;;;;;;17.97;16.17;;;;;;;10.82;100.00;97271.75;5063787;28;20399;-64
2023/10/11 03:46:33;;;;;;;17.80;14.93;;;;;;;10.68;100.00;97276.03;5006897;28;20689;-61
2023/10/11 03:49:35;;;;;;;17.57;15.77;;;;;;;10.68;100.00;97287.44;5061337;28;20583;-62
2023/10/11 03:52:04;;;;;;;16.27;14.70;;;;;;;10.70;100.00;97280.13;5059111;28;20264;-60
2023/10/11 03:54:36;;;;;;;16.50;15.00;;;;;;;10.71;100.00;97280.97;5060490;28;20234;-61
2023/10/11 03:57:05;;;;;;;16.43;14.93;;;;;;;10.70;100.00;97289.94;5059714;28;20306;-61
2023/10/11 03:59:38;;;;;;;19.03;16.30;;;;;;;10.76;100.00;97283.06;5060561;28;20253;-59
2023/10/11 04:02:10;;;;;;;18.10;15.63;;;;;;;10.80;100.00;97284.38;5014455;28;20613;-60
2023/10/11 04:04:40;;;;;;;17.60;15.73;;;;;;;10.67;100.00;97293.75;5038674;28;20203;-61
2023/10/11 04:07:13;;;;;;;15.33;13.83;;;;;;;10.71;100.00;97292.38;4997956;28;20230;-61
2023/10/11 04:09:44;;;;;;;16.10;14.53;;;;;;;10.74;100.00;97290.38;5057778;28;20195;-61
2023/10/11 04:12:14;;;;;;;15.97;14.37;;;;;;;10.74;100.00;97293.00;5058125;28;20271;-61
2023/10/11 04:14:44;;;;;;;16.43;14.70;;;;;;;10.71;100.00;97287.06;5059711;28;20242;-60
2023/10/11 04:17:25;;;;;;;18.23;16.27;;;;;;;10.75;100.00;97292.84;5058489;28;20230;-59
2023/10/11 04:20:00;;;;;;;16.73;14.93;;;;;;;10.71;100.00;97295.03;5031441;28;20195;-61
2023/10/11 04:22:31;;;;;;;17.10;15.40;;;;;;;10.71;100.00;97291.56;5044471;28;20205;-59
2023/10/11 04:25:06;;;;;;;16.47;14.97;;;;;;;10.75;100.00;97292.00;5054601;28;20207;-61
2023/10/11 04:30:27;;;;;;;15.70;14.10;;;;;;;10.67;100.00;97291.09;4998243;28;20225;-59
2023/10/11 04:32:56;;;;;;;19.03;15.47;;;;;;;10.65;100.00;97289.66;5058056;28;20637;-60
2023/10/11 04:35:25;;;;;;;16.90;15.23;;;;;;;10.62;100.00;97295.31;4973711;28;20226;-62
2023/10/11 04:38:01;;;;;;;17.37;15.57;;;;;;;10.62;100.00;97296.13;5060138;28;20219;-57
2023/10/11 04:40:49;;;;;;;20.27;16.37;;;;;;;10.59;100.00;97285.88;5035305;28;20215;-60
2023/10/11 04:43:25;;;;;;;16.30;14.07;;;;;;;10.53;100.00;97289.28;5059775;28;20223;-58
2023/10/11 04:45:55;;;;;;;20.97;16.57;;;;;;;10.54;100.00;97290.91;5056632;28;20199;-59
2023/10/11 04:48:33;;;;;;;17.87;15.90;;;;;;;10.54;100.00;97285.63;5059055;28;20240;-57
2023/10/11 04:51:07;;;;;;;16.53;14.50;;;;;;;10.49;100.00;97290.63;5006299;28;20275;-59
2023/10/11 04:53:45;;;;;;;19.93;15.73;;;;;;;10.52;100.00;97298.22;5058304;28;20199;-61
2023/10/11 04:56:51;;;;;;;17.83;15.93;;;;;;;10.49;100.00;97288.81;5057233;28;20222;-58
2023/10/11 04:59:11;;;;;;;17.70;15.90;;;;;;;10.44;100.00;97288.53;5060439;28;20203;-57
2023/10/11 05:01:58;;;;;;;18.03;15.93;;;;;;;10.49;100.00;97283.50;5058788;28;20717;-56
2023/10/11 05:04:32;;;;;;;17.67;15.77;;;;;;;10.50;100.00;97287.78;5055884;28;20214;-57
2023/10/11 05:07:07;;;;;;;17.33;15.73;;;;;;;10.46;100.00;97286.50;5004081;28;20239;-56
2023/10/11 05:09:40;;;;;;;17.40;15.57;;;;;;;10.49;100.00;97291.44;5041973;28;20297;-57
2023/10/11 05:12:10;;;;;;;19.07;17.13;;;;;;;10.42;100.00;97294.00;4974761;28;20249;-57
2023/10/11 05:14:56;;;;;;;17.13;15.17;;;;;;;10.40;100.00;97293.34;5057504;28;20206;-59
2023/10/11 05:17:38;;;;;;;18.40;16.50;;;;;;;10.42;100.00;97295.81;5055752;28;20219;-57
2023/10/11 05:22:52;;;;;;;18.97;17.23;;;;;;;10.35;100.00;97300.97;5014382;28;20217;-56
2023/10/11 05:25:40;;;;;;;17.63;15.90;;;;;;;10.32;100.00;97290.75;5003461;28;20663;-59
2023/10/11 05:33:57;;;;;;;17.33;14.83;;;;;;;10.35;100.00;97305.47;5057508;28;20769;-57
2023/10/11 05:36:40;;;;;;;23.80;16.50;;;;;;;10.40;100.00;97306.59;5034837;28;20645;-59
2023/10/11 05:52:56;;;;;;;19.43;16.73;;;;;;;10.56;100.00;97320.69;5055337;28;20517;-58
2023/10/11 05:55:24;;;;;;;19.63;17.57;;;;;;;10.50;100.00;97321.44;5058340;28;20207;-59
2023/10/11 05:57:52;;;;;;;20.03;16.73;;;;;;;10.56;100.00;97324.16;5002332;28;20287;-58
2023/10/11 06:00:25;;;;;;;18.47;16.47;;;;;;;10.57;100.00;97325.00;5058345;28;20293;-57
2023/10/11 06:02:54;;;;;;;18.77;16.30;;;;;;;10.59;100.00;97316.84;5048425;28;20196;-56
2023/10/11 06:05:23;;;;;;;22.97;18.67;;;;;;;10.56;100.00;97318.84;5053464;28;21179;-60
2023/10/11 06:08:00;;;;;;;24.53;19.27;;;;;;;10.56;100.00;97326.81;5047985;28;20220;-59
2023/10/11 06:10:35;;;;;;;90.83;48.57;;;;;;;10.62;100.00;97329.75;5057769;28;20203;-57
2023/10/11 06:13:07;;;;;;;23.70;18.13;;;;;;;10.60;100.00;97331.75;5002034;28;20230;-58
2023/10/11 06:15:36;;;;;;;18.50;16.53;;;;;;;10.55;100.00;97338.41;5058362;28;20207;-56
2023/10/11 06:18:05;;;;;;;16.73;15.03;;;;;;;10.62;100.00;97343.81;4964378;28;20222;-59
2023/10/11 06:20:39;;;;;;;19.23;16.80;;;;;;;10.60;100.00;97334.38;5055850;28;21012;-57
2023/10/11 06:23:06;;;;;;;19.57;16.60;;;;;;;10.55;100.00;97334.94;5050407;28;20692;-55
2023/10/11 06:25:53;;;;;;;16.70;15.00;;;;;;;10.51;100.00;97334.47;5057196;28;20649;-55
2023/10/11 06:28:30;;;;;;;19.03;17.10;;;;;;;10.49;100.00;97338.31;5005020;28;20260;-60
2023/10/11 06:31:00;;;;;;;18.30;16.50;;;;;;;10.38;100.00;97332.41;4996891;28;20256;-56
2023/10/11 06:33:34;;;;;;;18.90;16.90;;;;;;;10.27;100.00;97340.78;5056510;28;20594;-55
2023/10/11 06:36:06;;;;;;;18.23;16.37;;;;;;;10.37;100.00;97345.84;5053595;28;20223;-54
2023/10/11 06:38:41;;;;;;;19.67;16.33;;;;;;;10.31;100.00;97344.72;5055730;28;20746;-59
2023/10/11 06:43:51;;;;;;;16.87;15.37;;;;;;;10.25;100.00;97337.50;5061592;28;20289;-58
2023/10/11 06:46:19;;;;;;;19.33;17.50;;;;;;;10.36;100.00;97338.91;5003085;28;20209;-57
2023/10/11 06:48:49;;;;;;;18.13;16.43;;;;;;;10.40;100.00;97342.88;5057115;28;20202;-58
2023/10/11 06:51:17;;;;;;;25.80;17.03;;;;;;;10.38;100.00;97336.88;4942258;28;20207;-52
2023/10/11 06:53:46;;;;;;;19.27;17.37;;;;;;;10.42;100.00;97339.03;5052709;28;20271;-57
2023/10/11 06:56:16;;;;;;;19.53;17.67;;;;;;;10.34;100.00;97346.19;5054937;28;20724;-60
2023/10/11 06:58:45;;;;;;;19.37;17.07;;;;;;;10.45;100.00;97342.34;5054612;28;20565;-58
2023/10/11 07:01:14;;;;;;;22.03;17.33;;;;;;;10.53;100.00;97339.59;5007170;28;20351;-56
2023/10/11 07:03:43;;;;;;;19.40;17.33;;;;;;;10.62;100.00;97340.38;5055731;28;20207;-57
2023/10/11 07:06:22;;;;;;;17.60;16.07;;;;;;;10.75;100.00;97343.19;5051013;28;20195;-56
2023/10/11 07:08:50;;;;;;;19.47;17.40;;;;;;;10.73;100.00;97334.59;5056133;28;20592;-56
2023/10/11 07:11:36;;;;;;;18.07;16.23;;;;;;;10.88;100.00;97339.09;5052938;28;20204;-59
2023/10/11 07:14:05;;;;;;;18.70;16.90;;;;;;;10.88;100.00;97336.44;5054184;28;20198;-58
2023/10/11 07:16:33;;;;;;;20.50;17.67;;;;;;;10.96;100.00;97336.34;5052084;28;20246;-58
2023/10/11 07:19:01;;;;;;;20.67;18.53;;;;;;;10.88;100.00;97337.28;5053982;28;20203;-58
2023/10/11 07:21:48;;;;;;;20.20;18.20;;;;;;;11.00;100.00;97340.31;5002148;28;20231;-58
2023/10/11 07:24:38;;;;;;;19.47;17.47;;;;;;;10.98;100.00;97337.81;5057785;28;20190;-58
2023/10/11 07:27:08;;;;;;;18.40;16.40;;;;;;;11.06;100.00;97341.38;4953999;28;20226;-60
2023/10/11 07:29:38;;;;;;;17.77;16.03;;;;;;;10.98;100.00;97348.44;5054078;28;20791;-59
2023/10/11 07:32:09;;;;;;;17.80;16.00;;;;;;;10.96;100.00;97349.59;5001316;28;20292;-58
2023/10/11 07:34:38;;;;;;;18.00;16.27;;;;;;;11.06;100.00;97344.88;5058296;28;20237;-59
2023/10/11 07:37:11;;;;;;;17.93;16.13;;;;;;;11.11;100.00;97346.94;5051182;28;20223;-59
2023/10/11 07:39:41;;;;;;;17.80;16.03;;;;;;;11.17;100.00;97337.44;5056148;28;20605;-58
2023/10/11 07:42:09;;;;;;;17.03;15.43;;;;;;;11.24;100.00;97336.53;5055407;28;20213;-60
2023/10/11 07:44:38;;;;;;;17.67;16.03;;;;;;;11.40;100.00;97339.97;5054373;28;20652;-59
2023/10/11 07:47:08;;;;;;;18.67;16.80;;;;;;;11.68;100.00;97336.66;5050539;28;20210;-56
2023/10/11 07:49:39;;;;;;;17.37;15.17;;;;;;;11.87;100.00;97333.38;5056165;28;20687;-58
2023/10/11 07:52:13;;;;;;;16.53;15.07;;;;;;;12.00;100.00;97330.06;5001377;28;20227;-61
2023/10/11 07:54:41;;;;;;;17.60;15.90;;;;;;;12.14;100.00;97325.69;5054552;28;21041;-59
2023/10/11 07:57:13;;;;;;;16.13;14.47;;;;;;;12.41;100.00;97336.56;4943445;28;20705;-60
2023/10/11 07:59:42;;;;;;;14.17;12.87;;;;;;;12.40;100.00;97334.09;5057226;28;20777;-57
2023/10/11 08:02:26;;;;;;;17.57;14.43;;;;;;;12.57;100.00;97326.66;5000444;28;20207;-59
2023/10/11 08:04:54;;;;;;;17.03;14.73;;;;;;;12.63;100.00;97330.38;5058129;28;20227;-58
2023/10/11 08:07:23;;;;;;;14.37;12.97;;;;;;;12.68;100.00;97318.13;5059320;28;20214;-57
2023/10/11 08:09:53;;;;;;;14.30;12.80;;;;;;;12.66;100.00;97314.84;5060076;28;20752;-59
2023/10/11 08:12:23;;;;;;;15.17;13.20;;;;;;;12.70;100.00;97313.47;5058749;28;20203;-59
2023/10/11 08:14:53;;;;;;;13.37;12.03;;;;;;;12.65;100.00;97310.56;5063178;28;20205;-59
2023/10/11 08:17:22;;;;;;;13.20;11.70;;;;;;;12.72;100.00;97307.94;5053820;28;20254;-60
2023/10/11 08:19:53;;;;;;;13.50;12.10;;;;;;;12.68;100.00;97310.16;5058337;28;20576;-62
2023/10/11 08:22:23;;;;;;;15.87;11.80;;;;;;;12.76;100.00;97311.06;5057725;28;20203;-58
2023/10/11 08:24:56;;;;;;;13.03;11.77;;;;;;;13.03;100.00;97298.72;5059323;28;20833;-58
2023/10/11 08:27:28;;;;;;;13.47;12.07;;;;;;;13.36;100.00;97299.88;5015416;28;20309;-58
2023/10/11 08:30:07;;;;;;;14.53;12.20;;;;;;;13.51;100.00;97297.94;5038072;28;20207;-60
2023/10/11 08:32:38;;;;;;;15.13;12.67;;;;;;;13.74;100.00;97292.25;5005897;28;20340;-55
2023/10/11 08:35:09;;;;;;;14.37;12.70;;;;;;;13.76;100.00;97289.38;5043912;28;20703;-55
2023/10/11 08:37:38;;;;;;;12.70;11.50;;;;;;;13.97;100.00;97292.91;5026672;28;20226;-56
2023/10/11 08:40:19;;;;;;;13.87;11.93;;;;;;;14.21;100.00;97288.03;5058745;28;20268;-61
2023/10/11 08:42:49;;;;;;;13.03;11.43;;;;;;;14.39;100.00;97284.72;5069213;28;20226;-59
2023/10/11 08:45:21;;;;;;;15.97;11.73;;;;;;;14.61;100.00;97280.00;5052660;28;20486;-60
2023/10/11 08:47:49;;;;;;;13.27;11.40;;;;;;;14.67;100.00;97289.00;5055711;28;20211;-60
2023/10/11 08:50:18;;;;;;;15.23;12.20;;;;;;;14.72;100.00;97283.88;5051900;28;20227;-60
2023/10/11 08:52:47;;;;;;;17.23;11.63;;;;;;;14.86;100.00;97287.34;5057853;28;20294;-61
2023/10/11 08:55:19;;;;;;;12.60;11.30;;;;;;;14.81;100.00;97288.00;5053390;28;20284;-60
2023/10/11 08:57:48;;;;;;;13.37;11.37;;;;;;;14.83;100.00;97283.28;5059792;28;20230;-58
2023/10/11 09:00:28;;;;;;;13.47;12.10;;;;;;;15.05;100.00;97289.16;5027420;28;21498;-60
2023/10/11 09:02:58;;;;;;;13.10;11.70;;;;;;;15.04;100.00;97282.19;5052621;28;20631;-59
2023/10/11 09:05:42;;;;;;;14.97;10.97;;;;;;;15.20;100.00;97277.41;4975354;28;20930;-58
2023/10/11 09:08:22;;;;;;;13.73;12.40;;;;;;;15.39;100.00;97280.22;5055759;28;20305;-60
2023/10/11 09:10:51;;;;;;;14.87;10.23;;;;;;;15.53;100.00;97279.09;5053002;28;20251;-61
2023/10/11 09:13:25;;;;;;;15.13;10.47;;;;;;;15.66;100.00;97280.06;5058656;28;20242;-60
2023/10/11 09:15:55;;;;;;;15.40;11.03;;;;;;;15.80;100.00;97276.28;5055106;28;20475;-59
2023/10/11 09:18:25;;;;;;;16.67;11.10;;;;;;;15.64;100.00;97269.59;5055459;28;20259;-58
2023/10/11 09:21:08;;;;;;;17.03;11.60;;;;;;;15.85;100.00;97272.94;5052582;28;20854;-61
2023/10/11 09:23:39;;;;;;;16.03;10.87;;;;;;;15.68;100.00;97275.31;5055946;28;20207;-58
2023/10/11 09:26:08;;;;;;;13.90;10.37;;;;;;;15.76;100.00;97267.88;5055503;28;20313;-55
2023/10/11 09:28:40;;;;;;;11.70;10.03;;;;;;;15.73;100.00;97270.97;5058137;28;20258;-59
2023/10/11 09:31:11;;;;;;;16.27;10.07;;;;;;;15.90;100.00;97273.97;5050182;28;20879;-60
2023/10/11 09:33:41;;;;;;;14.13;10.23;;;;;;;16.15;100.00;97275.03;5058506;28;20678;-60
2023/10/11 09:36:09;;;;;;;13.23;9.90;;;;;;;16.29;100.00;97279.25;5004411;28;20784;-59
2023/10/11 09:38:41;;;;;;;14.70;9.43;;;;;;;16.37;100.00;97277.34;5056806;28;20230;-58
2023/10/11 09:41:10;;;;;;;12.90;9.40;;;;;;;16.40;100.00;97275.03;4945834;28;20238;-58
2023/10/11 09:43:42;;;;;;;12.83;9.83;;;;;;;16.49;100.00;97267.56;5062414;28;20206;-59
2023/10/11 09:46:12;;;;;;;14.40;10.03;;;;;;;16.58;100.00;97266.22;5052766;28;20207;-59
2023/10/11 09:48:40;;;;;;;12.17;9.53;;;;;;;16.66;100.00;97265.13;5056970;28;20227;-60
2023/10/11 09:51:13;;;;;;;12.20;9.67;;;;;;;16.75;100.00;97253.09;5049847;28;20627;-60
2023/10/11 09:53:49;;;;;;;10.80;9.13;;;;;;;16.70;100.00;97262.84;5056718;28;20273;-60
2023/10/11 09:56:30;;;;;;;12.30;8.37;;;;;;;16.64;100.00;97264.53;5050707;28;20227;-58
2023/10/11 09:59:06;;;;;;;16.07;9.43;;;;;;;16.67;100.00;97258.75;5055985;28;20219;-58
2023/10/11 10:01:38;;;;;;;15.37;8.37;;;;;;;16.71;100.00;97257.25;5050521;28;20228;-57
2023/10/11 10:04:09;;;;;;;14.37;9.70;;;;;;;16.87;100.00;97263.09;5056923;28;20199;-59
2023/10/11 10:06:37;;;;;;;15.57;9.37;;;;;;;16.89;100.00;97261.00;5052979;28;20218;-59
2023/10/11 10:09:24;;;;;;;11.57;8.20;;;;;;;16.95;100.00;97254.75;5053255;28;20199;-57
2023/10/11 10:12:20;;;;;;;10.90;8.97;;;;;;;17.10;100.00;97246.38;4943576;28;20207;-57
2023/10/11 10:14:51;;;;;;;10.80;8.40;;;;;;;17.19;100.00;97244.19;5058323;28;20198;-58
2023/10/11 10:17:19;;;;;;;9.57;8.63;;;;;;;17.36;100.00;97250.56;5052818;28;20794;-59
2023/10/11 10:19:48;;;;;;;9.63;8.63;;;;;;;17.29;100.00;97249.84;5059033;28;20246;-59
2023/10/11 10:22:17;;;;;;;11.07;8.47;;;;;;;17.49;100.00;97252.25;5049755;28;20682;-60
2023/10/11 10:24:54;;;;;;;8.73;7.83;;;;;;;17.52;100.00;97250.16;5059429;28;20671;-59
2023/10/11 10:27:38;;;;;;;12.47;9.03;;;;;;;17.53;100.00;97247.25;5054220;28;20222;-58
2023/10/11 10:30:07;;;;;;;12.00;8.30;;;;;;;17.61;100.00;97244.25;5051669;28;20281;-61
2023/10/11 10:32:36;;;;;;;16.77;8.60;;;;;;;17.68;100.00;97248.72;5055718;28;20415;-58
2023/10/11 10:35:25;;;;;;;10.33;8.00;;;;;;;17.83;100.00;97248.28;5060526;28;20206;-63
2023/10/11 10:37:55;;;;;;;12.67;8.37;;;;;;;17.89;100.00;97252.75;5053719;28;20938;-60
2023/10/11 10:40:26;;;;;;;13.43;7.53;;;;;;;17.97;100.00;97257.75;4981496;28;20957;-60
2023/10/11 10:43:23;;;;;;;11.17;8.10;;;;;;;18.07;100.00;97246.50;5034004;28;20210;-61
2023/10/11 10:45:53;;;;;;;10.17;7.90;;;;;;;18.22;100.00;97240.72;5052067;28;20195;-59
2023/10/11 10:48:23;;;;;;;10.87;7.67;;;;;;;18.41;100.00;97235.22;5056547;28;20284;-57
2023/10/11 10:50:52;;;;;;;15.00;7.90;;;;;;;18.47;100.00;97234.28;5054600;28;20791;-59
2023/10/11 10:53:24;;;;;;;8.97;6.83;;;;;;;18.48;100.00;97228.69;5053336;28;20210;-60
2023/10/11 10:55:57;;;;;;;12.97;6.73;;;;;;;18.64;100.00;97226.34;5054010;28;20207;-59
2023/10/11 10:58:27;;;;;;;10.90;6.63;;;;;;;18.74;100.00;97225.75;5057027;28;20264;-58
2023/10/11 11:00:59;;;;;;;12.37;7.93;;;;;;;18.77;100.00;97220.75;5050818;28;20295;-56
2023/10/11 11:03:31;;;;;;;8.87;6.80;;;;;;;18.86;100.00;97215.00;5053007;28;20567;-61
2023/10/11 11:06:00;;;;;;;13.03;7.83;;;;;;;18.90;100.00;97210.78;5053910;28;20234;-60
2023/10/11 11:08:31;;;;;;;14.07;8.27;;;;;;;18.95;100.00;97202.84;5053314;28;20801;-60
2023/10/11 11:13:48;;;;;;;9.27;6.77;;;;;;;19.12;100.00;97184.13;5056852;28;20203;-57
2023/10/11 11:16:19;;;;;;;7.03;6.20;;;;;;;19.29;100.00;97188.72;5051660;28;20226;-59
2023/10/11 11:18:47;;;;;;;10.67;6.93;;;;;;;19.28;100.00;97179.03;5053424;28;20230;-60
2023/10/11 11:21:20;;;;;;;8.67;7.13;;;;;;;19.31;100.00;97176.69;5050759;28;20203;-60
2023/10/11 11:23:50;;;;;;;7.43;6.60;;;;;;;19.36;100.00;97173.31;5052577;28;20198;-60
2023/10/11 11:26:21;;;;;;;10.80;6.50;;;;;;;19.48;100.00;97165.16;5052777;28;20237;-59
2023/10/11 11:29:10;;;;;;;11.60;6.67;;;;;;;19.55;100.00;97173.91;5053391;28;20748;-60
2023/10/11 11:31:51;;;;;;;11.50;6.97;;;;;;;19.64;100.00;97174.31;5050757;28;20356;-61
2023/10/11 11:34:27;;;;;;;13.77;6.90;;;;;;;19.67;100.00;97169.28;5056546;28;20310;-59
2023/10/11 11:36:56;;;;;;;10.50;6.73;;;;;;;19.73;100.00;97169.34;5072676;28;20230;-57
2023/10/11 11:39:51;;;;;;;10.43;7.07;;;;;;;19.83;100.00;97172.19;5057016;28;20222;-59
2023/10/11 11:42:20;;;;;;;9.77;6.80;;;;;;;19.93;100.00;97169.72;5054839;28;20214;-58
2023/10/11 11:44:49;;;;;;;10.23;6.80;;;;;;;19.98;100.00;97165.50;5056845;28;20637;-60
2023/10/11 11:47:21;;;;;;;11.80;6.60;;;;;;;20.08;100.00;97165.63;4966924;28;20247;-56
2023/10/11 11:49:53;;;;;;;12.23;6.43;;;;;;;20.18;100.00;97159.59;5057457;28;20199;-57
2023/10/11 11:52:20;;;;;;;11.53;6.00;;;;;;;20.32;100.00;97152.00;5053657;28;20207;-60
2023/10/11 11:54:48;;;;;;;12.67;6.37;;;;;;;20.37;100.00;97157.44;5056599;28;20301;-57
2023/10/11 11:57:15;;;;;;;8.00;6.10;;;;;;;20.47;100.00;97157.56;5051872;28;20262;-55
2023/10/11 11:59:44;;;;;;;13.93;6.30;;;;;;;20.59;100.00;97159.34;5059349;28;20277;-59
2023/10/11 12:02:16;;;;;;;9.57;5.70;;;;;;;20.78;100.00;97154.44;5054590;28;20276;-58
2023/10/11 12:04:47;;;;;;;7.57;5.47;;;;;;;20.79;100.00;97134.56;5057777;28;20689;-58